Here is the Quick Look data you requested

The Data originates at the National Weather Service, and is made available here by the UAlbany Department of Atmospheric and Environmental Sciences

Surface Observations

K1V4 230954Z AUTO M06/M07 A2992 RMK AO1 SLP143 T10561072=
KBTV 230954Z 00000KT 10SM CLR M06/M08 A2997 RMK AO2 SLP152 T10561078=
KDDH 230954Z AUTO 00000KT 10SM CLR M06/M09 A2996 RMK AO2 SLP152 T10561089=
KEFK 230955Z AUTO 00000KT 10SM CLR M08/M09 A2993 RMK AO2 T10811088=
KMPV 230951Z AUTO 00000KT 10SM CLR M07/M07 A2994 RMK AO2 SLP157 T10671072=
KMVL 230954Z AUTO 00000KT 10SM CLR M11/M12 A2995 RMK AO2 SLP155 T11061117=
KRUT 230956Z AUTO 13004KT 10SM CLR M06/M08 A2995 RMK AO2 SLP164 T10611083
KVSF 230954Z AUTO 00000KT 10SM CLR M04/M07 A2993 RMK AO2 SLP143 T10441072=